Harkeyville, Texas
Current Conditions -  °F | °C
As of 12:30 AM on Friday 31 Oct 2014 (Local Time) from KAQO Reporting Station
Thunderstorm Thunderstorm  
Wind Chill: 64°   Ceiling: 6000
Heat Index: 64°   Visibility: 10mi
Dew Point: 63°   Wind: 3mph
Humidity: 94%   Direction: 60°ENE
Pressure: 30.18"   Gusts: NA
Location:  31.0718°N, 98.8001°W
Report Text: KAQO 310530Z AUTO 06003KT 10SM VCTS BKN060 18/17 A3018 RMK AO2 LTG DSNT S AND SW P0002
Loading
Personal Weather Stations






























Interactive Weather Map
Tropical Storm Tracking
New forecast layout! Learn more

10-Day Weather Forecast

Advertisements
Track Severe Weather on mobile